createdAt,value
2018-04-24T00:00:52.036Z,18.3
2018-04-24T00:01:53.361Z,18.3
2018-04-24T00:02:54.769Z,18.3
2018-04-24T00:03:58.710Z,18.2
2018-04-24T00:05:00.068Z,18.2
2018-04-24T00:06:01.463Z,18.2
2018-04-24T00:07:02.775Z,18.2
2018-04-24T00:08:04.131Z,18.2
2018-04-24T00:09:05.440Z,18.2
2018-04-24T00:10:06.739Z,18.2
2018-04-24T00:11:08.092Z,18.1
2018-04-24T00:12:09.432Z,18.1
2018-04-24T00:13:12.644Z,18.1
2018-04-24T00:14:14.010Z,18.1
2018-04-24T00:15:15.351Z,18.1
2018-04-24T00:16:16.667Z,18.1
2018-04-24T00:17:18.056Z,18
2018-04-24T00:18:19.456Z,18
2018-04-24T00:19:20.743Z,18
2018-04-24T00:20:22.095Z,18
2018-04-24T00:21:23.422Z,18
2018-04-24T00:22:24.756Z,17.9
2018-04-24T00:23:26.133Z,18
2018-04-24T00:24:27.508Z,18
2018-04-24T00:25:28.820Z,18
2018-04-24T00:26:30.163Z,18
2018-04-24T00:27:31.482Z,18
2018-04-24T00:28:32.875Z,17.9
2018-04-24T00:29:34.204Z,17.9
2018-04-24T00:30:35.536Z,17.9
2018-04-24T00:31:36.908Z,17.9
2018-04-24T00:32:38.259Z,17.8
2018-04-24T00:33:39.671Z,17.9
2018-04-24T00:34:41.149Z,17.9
2018-04-24T00:35:42.695Z,17.9
2018-04-24T00:36:44.151Z,17.8
2018-04-24T00:37:45.700Z,17.8
2018-04-24T00:38:47.144Z,17.8
2018-04-24T00:39:48.614Z,17.8
2018-04-24T00:40:49.946Z,17.8
2018-04-24T00:41:51.331Z,17.8
2018-04-24T00:42:52.737Z,17.8
2018-04-24T00:43:54.207Z,17.8
2018-04-24T00:44:55.548Z,17.8
2018-04-24T00:45:59.461Z,17.8
2018-04-24T00:47:00.853Z,17.8
2018-04-24T00:48:02.231Z,17.8
2018-04-24T00:49:03.804Z,17.8
2018-04-24T00:50:05.130Z,17.8
2018-04-24T00:51:06.449Z,17.8
2018-04-24T00:52:08.208Z,17.8
2018-04-24T00:53:09.577Z,17.8
2018-04-24T00:54:10.954Z,17.8
2018-04-24T00:55:12.331Z,17.8
2018-04-24T00:56:13.649Z,17.8
2018-04-24T00:57:14.966Z,17.8
2018-04-24T00:58:16.266Z,17.8
2018-04-24T00:59:17.669Z,17.8
2018-04-24T01:00:19.043Z,17.7
2018-04-24T01:01:20.339Z,17.7
2018-04-24T01:02:21.712Z,17.7
2018-04-24T01:03:23.023Z,17.7
2018-04-24T01:04:24.395Z,17.6
2018-04-24T01:05:25.707Z,17.5
2018-04-24T01:06:27.018Z,17.6
2018-04-24T01:07:28.322Z,17.6
2018-04-24T01:08:29.661Z,17.6
2018-04-24T01:09:31.019Z,17.6
2018-04-24T01:10:35.026Z,17.6
2018-04-24T01:11:36.363Z,17.7
2018-04-24T01:12:37.684Z,17.6
2018-04-24T01:13:39.004Z,17.5
2018-04-24T01:14:40.351Z,17.6
2018-04-24T01:15:41.716Z,17.6
2018-04-24T01:16:43.062Z,17.6
2018-04-24T01:17:44.371Z,17.6
2018-04-24T01:18:45.700Z,17.6
2018-04-24T01:19:47.098Z,17.6
2018-04-24T01:20:48.414Z,17.6
2018-04-24T01:21:49.737Z,17.6
2018-04-24T01:22:51.099Z,17.5
2018-04-24T01:23:52.481Z,17.6
2018-04-24T01:24:53.821Z,17.4
2018-04-24T01:25:55.223Z,17.5
2018-04-24T01:26:56.571Z,17.5
2018-04-24T01:27:57.886Z,17.5
2018-04-24T01:28:59.202Z,17.5
2018-04-24T01:30:00.589Z,17.5
2018-04-24T01:31:01.985Z,17.5
2018-04-24T01:32:04.015Z,17.5
2018-04-24T01:33:08.039Z,17.5
2018-04-24T01:34:09.388Z,17.5
2018-04-24T01:35:11.010Z,17.5
2018-04-24T01:36:12.406Z,17.5
2018-04-24T01:37:13.741Z,17.5
2018-04-24T01:38:15.063Z,17.4
2018-04-24T01:39:16.490Z,17.4
2018-04-24T01:40:17.901Z,17.4
2018-04-24T01:41:24.589Z,17.3
2018-04-24T01:42:25.895Z,17.3
2018-04-24T01:43:27.300Z,17.3
2018-04-24T01:44:28.699Z,17.3
2018-04-24T01:45:30.138Z,17.2
2018-04-24T01:46:31.524Z,17.2
2018-04-24T01:47:33.004Z,17.2
2018-04-24T01:48:34.438Z,17.2
2018-04-24T01:49:35.831Z,17.1
2018-04-24T01:50:37.307Z,17.2
2018-04-24T01:51:38.700Z,17.2
2018-04-24T01:52:40.130Z,17.2
2018-04-24T01:53:41.465Z,17.2
2018-04-24T01:54:42.807Z,17.1
2018-04-24T01:55:44.163Z,17.1
2018-04-24T01:56:45.508Z,17.1
2018-04-24T01:57:47.123Z,17.1
2018-04-24T01:58:48.439Z,17.2
2018-04-24T01:59:49.757Z,17.1
2018-04-24T02:00:51.151Z,17.2
2018-04-24T02:01:52.505Z,17.2
2018-04-24T02:02:53.830Z,17.2
2018-04-24T02:03:55.168Z,17.2
2018-04-24T02:04:56.513Z,17.2
2018-04-24T02:05:57.949Z,17.2
2018-04-24T02:06:59.286Z,17.2
2018-04-24T02:08:00.608Z,17.2
2018-04-24T02:09:01.972Z,17.1
2018-04-24T02:10:03.349Z,17.1
2018-04-24T02:11:04.727Z,17.1
2018-04-24T02:12:06.046Z,17.1
2018-04-24T02:13:07.358Z,17.1
2018-04-24T02:14:08.686Z,17.1
2018-04-24T02:15:10.039Z,17
2018-04-24T02:16:11.459Z,17
2018-04-24T02:17:12.839Z,17
2018-04-24T02:18:14.158Z,16.9
2018-04-24T02:19:15.494Z,16.9
2018-04-24T02:20:16.815Z,16.9
2018-04-24T02:21:18.164Z,16.9
2018-04-24T02:22:19.491Z,16.9
2018-04-24T02:23:20.833Z,16.9
2018-04-24T02:24:34.704Z,16.8
2018-04-24T02:25:36.016Z,17
2018-04-24T02:26:37.433Z,16.9
2018-04-24T02:27:38.793Z,16.9
2018-04-24T02:28:40.161Z,16.9
2018-04-24T02:29:41.476Z,16.9
2018-04-24T02:30:42.807Z,16.9
2018-04-24T02:31:44.162Z,16.9
2018-04-24T02:32:45.519Z,16.9
2018-04-24T02:33:46.875Z,16.8
2018-04-24T02:34:48.213Z,16.8
2018-04-24T02:35:49.533Z,16.9
2018-04-24T02:36:51.249Z,16.9
2018-04-24T02:37:52.593Z,16.9
2018-04-24T02:38:53.920Z,16.9
2018-04-24T02:39:55.314Z,16.9
2018-04-24T02:40:56.711Z,16.9
2018-04-24T02:41:58.067Z,16.9
2018-04-24T02:42:59.395Z,16.9
2018-04-24T02:44:00.753Z,16.8
2018-04-24T02:45:02.109Z,16.8
2018-04-24T02:46:03.441Z,16.8
2018-04-24T02:47:04.832Z,16.7
2018-04-24T02:48:06.165Z,16.7
2018-04-24T02:49:07.513Z,16.7
2018-04-24T02:50:13.406Z,16.7
2018-04-24T02:51:14.792Z,16.8
2018-04-24T02:52:16.230Z,16.7
2018-04-24T02:53:17.550Z,16.8
2018-04-24T02:54:18.859Z,16.8
2018-04-24T02:55:20.176Z,16.8
2018-04-24T02:56:21.584Z,16.8
2018-04-24T02:57:23.217Z,16.8
2018-04-24T02:58:24.525Z,16.7
2018-04-24T02:59:26.248Z,16.7
2018-04-24T03:00:27.604Z,16.7
2018-04-24T03:01:29.011Z,16.7
2018-04-24T03:02:30.402Z,16.6
2018-04-24T03:03:31.810Z,16.7
2018-04-24T03:04:33.193Z,16.7
2018-04-24T03:05:34.635Z,16.7
2018-04-24T03:06:35.968Z,16.7
2018-04-24T03:07:37.371Z,16.7
2018-04-24T03:08:38.697Z,16.7
2018-04-24T03:09:40.036Z,16.7
2018-04-24T03:10:41.429Z,16.7
2018-04-24T03:11:42.830Z,16.5
2018-04-24T03:12:44.267Z,16.7
2018-04-24T03:13:45.659Z,16.6
2018-04-24T03:14:46.978Z,16.6
2018-04-24T03:15:48.303Z,16.6
2018-04-24T03:16:49.634Z,16.6
2018-04-24T03:17:51.081Z,16.6
2018-04-24T03:18:52.463Z,16.6
2018-04-24T03:19:53.776Z,16.5
2018-04-24T03:20:55.110Z,16.6
2018-04-24T03:21:56.473Z,16.5
2018-04-24T03:22:57.863Z,16.5
2018-04-24T03:23:59.218Z,16.5
2018-04-24T03:25:00.582Z,16.5
2018-04-24T03:26:01.962Z,16.5
2018-04-24T03:27:03.327Z,16.5
2018-04-24T03:28:05.457Z,16.5
2018-04-24T03:29:07.374Z,16.4
2018-04-24T03:30:08.709Z,16.5
2018-04-24T03:31:10.078Z,16.4
2018-04-24T03:32:11.417Z,16.5
2018-04-24T03:33:12.798Z,16.5
2018-04-24T03:34:14.259Z,16.5
2018-04-24T03:35:15.551Z,16.5
2018-04-24T03:36:16.869Z,16.5
2018-04-24T03:37:18.211Z,16.4
2018-04-24T03:38:19.629Z,16.4
2018-04-24T03:39:20.955Z,16.4
2018-04-24T03:40:22.272Z,16.4
2018-04-24T03:41:23.656Z,16.4
2018-04-24T03:42:24.995Z,16.4
2018-04-24T03:43:26.393Z,16.4
2018-04-24T03:44:27.772Z,16.4
2018-04-24T03:45:29.110Z,16.4
2018-04-24T03:46:30.444Z,16.4
2018-04-24T03:47:31.752Z,16.4
2018-04-24T03:48:33.163Z,16.4
2018-04-24T03:49:34.478Z,16.4
2018-04-24T03:50:35.811Z,16.4
2018-04-24T03:51:37.135Z,16.4
2018-04-24T03:52:38.438Z,16.4
2018-04-24T03:53:39.818Z,16.3
2018-04-24T03:54:41.292Z,16.4
2018-04-24T03:55:42.740Z,16.4
2018-04-24T03:56:44.203Z,16.4
2018-04-24T03:57:45.634Z,16.4
2018-04-24T03:58:47.520Z,16.3
2018-04-24T03:59:48.884Z,16.4
2018-04-24T04:00:50.303Z,16.4
2018-04-24T04:01:51.679Z,16.4
2018-04-24T04:02:58.772Z,16.4
2018-04-24T04:04:00.233Z,16.4
2018-04-24T04:05:03.797Z,16.3
2018-04-24T04:06:05.287Z,16.3
2018-04-24T04:07:06.778Z,16.3
2018-04-24T04:08:08.220Z,16.3
2018-04-24T04:09:09.717Z,16.3
2018-04-24T04:10:11.226Z,16.3
2018-04-24T04:11:12.544Z,16.3
2018-04-24T04:12:14.195Z,16.2
2018-04-24T04:13:15.580Z,16.2
2018-04-24T04:14:16.980Z,16.3
2018-04-24T04:15:18.294Z,16.3
2018-04-24T04:16:19.607Z,16.3
2018-04-24T04:17:23.678Z,16.3
2018-04-24T04:18:25.037Z,16.3
2018-04-24T04:19:26.682Z,16.3
2018-04-24T04:20:28.111Z,16.3
2018-04-24T04:21:29.420Z,16.3
2018-04-24T04:22:30.819Z,16.3
2018-04-24T04:23:32.126Z,16.3
2018-04-24T04:24:33.634Z,16.3
2018-04-24T04:25:35.105Z,16.3
2018-04-24T04:26:36.623Z,16.3
2018-04-24T04:27:38.093Z,16.1
2018-04-24T04:28:39.530Z,16.3
2018-04-24T04:29:40.901Z,16.3
2018-04-24T04:30:42.235Z,16.3
2018-04-24T04:31:43.578Z,16.3
2018-04-24T04:32:44.918Z,16.3
2018-04-24T04:33:46.231Z,16.3
2018-04-24T04:34:47.594Z,16.2
2018-04-24T04:35:49.033Z,16.3
2018-04-24T04:36:50.338Z,16.2
2018-04-24T04:37:51.719Z,16.3
2018-04-24T04:38:53.033Z,16.2
2018-04-24T04:39:54.519Z,16.3
2018-04-24T04:40:55.852Z,16.3
2018-04-24T04:41:57.211Z,16.3
2018-04-24T04:43:01.393Z,16.3
2018-04-24T04:44:02.729Z,16.3
2018-04-24T04:45:04.170Z,16.2
2018-04-24T04:46:05.537Z,16.3
2018-04-24T04:47:06.864Z,16.3
2018-04-24T04:48:08.200Z,16.3
2018-04-24T04:49:09.572Z,16.2
2018-04-24T04:50:11.012Z,16.3
2018-04-24T04:51:12.343Z,16.3
2018-04-24T04:52:13.778Z,16.3
2018-04-24T04:53:15.171Z,16.3
2018-04-24T04:54:16.535Z,16.3
2018-04-24T04:55:17.944Z,16.3
2018-04-24T04:56:19.276Z,16.3
2018-04-24T04:57:20.603Z,16.1
2018-04-24T04:58:24.521Z,16.3
2018-04-24T04:59:25.929Z,16.3
2018-04-24T05:00:27.310Z,16.3
2018-04-24T05:01:28.695Z,16.4
2018-04-24T05:02:30.095Z,16.5
2018-04-24T05:03:31.561Z,16.5
2018-04-24T05:04:32.947Z,16.6
2018-04-24T05:05:34.387Z,16.6
2018-04-24T05:06:35.772Z,16.8
2018-04-24T05:07:41.004Z,16.8
2018-04-24T05:08:42.365Z,16.9
2018-04-24T05:09:43.747Z,16.9
2018-04-24T05:10:45.377Z,17
2018-04-24T05:11:47.147Z,17
2018-04-24T05:12:48.594Z,17.1
2018-04-24T05:13:50.114Z,17.1
2018-04-24T05:14:51.628Z,17.1
2018-04-24T05:15:54.337Z,17.1
2018-04-24T05:16:55.796Z,17.1
2018-04-24T05:17:57.289Z,17.1
2018-04-24T05:18:58.867Z,17.2
2018-04-24T05:20:00.387Z,17.3
2018-04-24T05:21:02.162Z,17.4
2018-04-24T05:22:06.193Z,17.4
2018-04-24T05:23:07.763Z,17.5
2018-04-24T05:24:09.221Z,17.3
2018-04-24T05:25:10.731Z,17.6
2018-04-24T05:26:12.139Z,17.5
2018-04-24T05:27:13.619Z,17.7
2018-04-24T05:28:15.143Z,17.8
2018-04-24T05:29:16.540Z,17.6
2018-04-24T05:30:17.963Z,17.8
2018-04-24T05:31:19.354Z,17.8
2018-04-24T05:32:20.757Z,18
2018-04-24T05:33:22.412Z,18
2018-04-24T05:34:23.970Z,18.1
2018-04-24T05:35:25.354Z,18.1
2018-04-24T05:36:26.776Z,18.1
2018-04-24T05:37:28.119Z,18.1
2018-04-24T05:38:29.509Z,18.1
2018-04-24T05:39:30.885Z,18.1
2018-04-24T05:40:32.400Z,18.2
2018-04-24T05:41:33.828Z,18.1
2018-04-24T05:42:35.166Z,18.1
2018-04-24T05:43:36.518Z,18.1
2018-04-24T05:44:37.952Z,18
2018-04-24T05:45:39.283Z,18.1
2018-04-24T05:46:40.731Z,18.1
2018-04-24T05:47:42.108Z,18
2018-04-24T05:48:43.537Z,18.2
2018-04-24T05:49:44.925Z,18.2
2018-04-24T05:50:46.273Z,18.2
2018-04-24T05:51:47.670Z,18.3
2018-04-24T05:52:49.037Z,18.4
2018-04-24T05:53:50.544Z,18.5
2018-04-24T05:54:59.423Z,18.5
2018-04-24T05:56:00.827Z,18.6
2018-04-24T05:57:03.090Z,18.5
2018-04-24T05:58:04.526Z,18.6
2018-04-24T05:59:05.930Z,18.6
2018-04-24T06:00:07.285Z,18.6
2018-04-24T06:01:08.667Z,18.6
2018-04-24T06:02:10.141Z,18.5
2018-04-24T06:03:11.517Z,18.5
2018-04-24T06:04:12.912Z,18.5
2018-04-24T06:05:14.266Z,18.5
2018-04-24T06:06:15.610Z,18.6
2018-04-24T06:07:16.985Z,18.6
2018-04-24T06:08:18.383Z,18.6
2018-04-24T06:09:19.728Z,18.6
2018-04-24T06:10:21.239Z,18.6
2018-04-24T06:11:24.646Z,18.6
2018-04-24T06:12:26.117Z,18.7
2018-04-24T06:13:27.452Z,18.7
2018-04-24T06:14:28.848Z,18.8
2018-04-24T06:15:30.187Z,18.8
2018-04-24T06:16:31.534Z,18.9
2018-04-24T06:17:33.041Z,18.9
2018-04-24T06:18:37.508Z,19.3
2018-04-24T06:19:38.875Z,19.4
2018-04-24T06:20:40.244Z,19.8
2018-04-24T06:21:41.640Z,19.9
2018-04-24T06:22:43.041Z,20
2018-04-24T06:23:44.394Z,20.1
2018-04-24T06:24:45.763Z,20.2
2018-04-24T06:25:47.106Z,20.2
2018-04-24T06:26:48.665Z,20.1
2018-04-24T06:27:50.371Z,20.3
2018-04-24T06:28:55.209Z,20.2
2018-04-24T06:29:58.610Z,20.4
2018-04-24T06:31:07.644Z,20.4
2018-04-24T06:32:09.039Z,20.5
2018-04-24T06:33:10.556Z,20.5
2018-04-24T06:34:11.984Z,20.6
2018-04-24T06:35:13.495Z,20.6
2018-04-24T06:36:15.010Z,20.6
2018-04-24T06:37:19.160Z,20.7
2018-04-24T06:38:20.811Z,20.7
2018-04-24T06:39:22.209Z,20.7
2018-04-24T06:40:23.640Z,20.6
2018-04-24T06:41:32.467Z,20.7
2018-04-24T06:42:33.808Z,20.8
2018-04-24T06:43:35.391Z,20.9
2018-04-24T06:44:36.751Z,20.9
2018-04-24T06:45:41.641Z,21
2018-04-24T06:46:43.014Z,21
2018-04-24T06:47:44.724Z,21.1
2018-04-24T06:48:46.075Z,21.1
2018-04-24T06:49:47.442Z,21.2
2018-04-24T06:50:48.806Z,21.3
2018-04-24T06:51:50.204Z,21.4
2018-04-24T06:52:51.622Z,21.4
2018-04-24T06:53:53.189Z,21.4
2018-04-24T06:54:54.587Z,21.5
2018-04-24T06:55:58.991Z,21.5
2018-04-24T06:57:00.566Z,21.6
2018-04-24T06:58:16.207Z,21.6
2018-04-24T06:59:20.110Z,21.7
2018-04-24T07:00:21.448Z,21.7
2018-04-24T07:01:22.812Z,21.8
2018-04-24T07:02:24.301Z,21.8
2018-04-24T07:03:25.903Z,21.8
2018-04-24T07:04:27.501Z,21.8
2018-04-24T07:05:28.881Z,21.8
2018-04-24T07:06:30.445Z,21.7
2018-04-24T07:07:34.616Z,21.7
2018-04-24T07:08:36.015Z,21.6
2018-04-24T07:09:38.611Z,21.7
2018-04-24T07:10:40.005Z,21.7
2018-04-24T07:11:41.341Z,21.8
2018-04-24T07:12:42.761Z,21.9
2018-04-24T07:15:03.686Z,21.9
2018-04-24T07:16:05.298Z,21.9
2018-04-24T07:17:06.750Z,22
2018-04-24T07:18:08.599Z,22
2018-04-24T07:19:09.979Z,21.9
2018-04-24T07:20:11.635Z,22
2018-04-24T07:21:13.208Z,22
2018-04-24T07:22:14.778Z,22
2018-04-24T07:23:16.183Z,22.1
2018-04-24T07:24:20.516Z,22.2
2018-04-24T07:25:22.005Z,22.1
2018-04-24T07:26:23.344Z,22.2
2018-04-24T07:27:24.704Z,22.2
2018-04-24T07:28:26.140Z,22.2
2018-04-24T07:29:27.817Z,22.2
2018-04-24T07:30:32.452Z,22.3
2018-04-24T07:31:33.877Z,22.1
2018-04-24T07:32:35.326Z,22.3
2018-04-24T07:33:41.950Z,22.3
2018-04-24T07:34:43.308Z,22.3
2018-04-24T07:35:44.753Z,22.4
2018-04-24T07:36:46.093Z,22.5
2018-04-24T07:37:47.491Z,22.6
2018-04-24T07:38:48.889Z,22.5
2018-04-24T07:39:50.322Z,22.4
2018-04-24T07:40:51.705Z,22.5
2018-04-24T07:41:53.124Z,22.5
2018-04-24T07:42:56.995Z,22.5
2018-04-24T07:43:58.355Z,22.5
2018-04-24T07:44:59.744Z,22.6
2018-04-24T07:46:01.283Z,22.6
2018-04-24T07:47:02.789Z,22.5
2018-04-24T07:48:07.387Z,22.6
2018-04-24T07:49:08.787Z,22.6
2018-04-24T07:50:10.501Z,22.6
2018-04-24T07:51:12.011Z,22.5
2018-04-24T07:52:13.505Z,22.5
2018-04-24T07:53:14.885Z,22.5
2018-04-24T07:54:16.371Z,22.5
2018-04-24T07:55:18.663Z,22.4
2018-04-24T07:56:20.145Z,22.4
2018-04-24T07:57:21.629Z,22.5
2018-04-24T07:58:23.046Z,22.4
2018-04-24T07:59:24.611Z,22.5
2018-04-24T08:00:28.730Z,22.5
2018-04-24T08:01:30.682Z,22.5
2018-04-24T08:02:34.334Z,22.5
2018-04-24T08:03:35.994Z,22.5
2018-04-24T08:04:45.780Z,22.6
2018-04-24T08:05:47.196Z,22.6
2018-04-24T08:06:49.153Z,22.5
2018-04-24T08:07:50.572Z,22.6
2018-04-24T08:08:54.206Z,22.7
2018-04-24T08:09:55.894Z,22.6
2018-04-24T08:10:59.483Z,22.6
2018-04-24T08:12:01.208Z,22.5
2018-04-24T08:13:03.738Z,22.6
2018-04-24T08:14:05.226Z,22.7
2018-04-24T08:15:08.773Z,22.7
2018-04-24T08:16:10.228Z,22.7
2018-04-24T08:17:13.079Z,22.6
2018-04-24T08:18:14.641Z,22.7
2018-04-24T08:19:18.928Z,22.6
2018-04-24T08:20:21.675Z,22.6
2018-04-24T08:21:27.649Z,22.6
2018-04-24T08:22:29.067Z,22.6
2018-04-24T08:23:30.423Z,22.7
2018-04-24T08:24:31.799Z,22.7
2018-04-24T08:25:34.104Z,22.5
2018-04-24T08:26:35.629Z,22.7
2018-04-24T08:28:44.964Z,22.5
2018-04-24T08:29:46.503Z,22.6
2018-04-24T08:30:47.962Z,22.5
2018-04-24T08:31:49.412Z,22.5
2018-04-24T08:32:50.888Z,22.5
2018-04-24T08:33:52.526Z,22.5
2018-04-24T08:34:54.238Z,22.5
2018-04-24T08:35:55.735Z,22.4
2018-04-24T08:36:57.362Z,22.5
2018-04-24T08:38:08.372Z,22.5
2018-04-24T08:39:10.524Z,22.5
2018-04-24T08:40:12.060Z,22.5
2018-04-24T08:41:13.513Z,22.5
2018-04-24T08:42:15.012Z,22.2
2018-04-24T08:43:16.455Z,22.3
2018-04-24T08:44:18.858Z,22.4
2018-04-24T08:45:20.278Z,22.5
2018-04-24T08:46:23.258Z,22.4
2018-04-24T08:47:25.026Z,22.4
2018-04-24T08:48:27.013Z,22.3
2018-04-24T08:49:28.979Z,22.3
2018-04-24T08:50:33.842Z,22.3
2018-04-24T08:51:35.390Z,22.3
2018-04-24T08:52:39.473Z,22.3
2018-04-24T08:53:40.915Z,22.3
2018-04-24T08:54:45.736Z,22.3
2018-04-24T08:55:47.124Z,22.3
2018-04-24T08:56:50.197Z,22.3
2018-04-24T08:57:51.776Z,22.2
2018-04-24T08:58:55.414Z,22.3
2018-04-24T08:59:56.814Z,22.2
2018-04-24T09:00:58.693Z,22.3
2018-04-24T09:02:00.063Z,22.3
2018-04-24T09:03:03.653Z,22.3
2018-04-24T09:04:05.208Z,22.3
2018-04-24T09:05:10.484Z,22.3
2018-04-24T09:06:11.878Z,22.2
2018-04-24T09:07:13.397Z,22.4
2018-04-24T09:08:15.143Z,22.4
2018-04-24T09:09:18.442Z,22.3
2018-04-24T09:10:19.837Z,22.3
2018-04-24T09:11:21.561Z,22.3
2018-04-24T09:12:23.576Z,22.2
2018-04-24T09:13:28.291Z,22.3
2018-04-24T09:14:30.173Z,22.2
2018-04-24T09:15:32.508Z,22.3
2018-04-24T09:16:34.570Z,22.2
2018-04-24T09:17:38.273Z,22.2
2018-04-24T09:18:41.098Z,22.2
2018-04-24T09:19:43.411Z,22.1
2018-04-24T09:20:44.980Z,22.3
2018-04-24T09:21:46.590Z,22.3
2018-04-24T09:22:48.031Z,22.2
2018-04-24T09:23:53.438Z,22.1
2018-04-24T09:24:57.563Z,22.3
2018-04-24T09:25:59.311Z,22.2
2018-04-24T09:27:00.796Z,22.1
2018-04-24T09:28:03.901Z,22.2
2018-04-24T09:29:06.177Z,22.1
2018-04-24T09:30:09.845Z,22.1
2018-04-24T09:31:12.694Z,22.2
2018-04-24T09:32:18.329Z,22.1
2018-04-24T09:33:23.956Z,22.2
2018-04-24T09:34:25.303Z,22.2
2018-04-24T09:35:27.194Z,22.2
2018-04-24T09:36:28.807Z,22.2
2018-04-24T09:37:31.236Z,22.2
2018-04-24T09:38:32.976Z,22.2
2018-04-24T09:39:34.664Z,22.2
2018-04-24T09:40:38.175Z,22.2
2018-04-24T09:41:39.743Z,22.2
2018-04-24T09:42:41.327Z,22.2
2018-04-24T09:43:42.786Z,22.2
2018-04-24T09:44:44.624Z,22.2
2018-04-24T09:45:46.334Z,22.2
2018-04-24T09:46:47.917Z,22.2
2018-04-24T09:47:51.634Z,22.2
2018-04-24T09:48:59.601Z,22.2
2018-04-24T09:50:04.921Z,22.2
2018-04-24T09:51:06.432Z,22.2
2018-04-24T09:52:07.907Z,22.1
2018-04-24T09:53:26.026Z,22.2
2018-04-24T09:54:29.935Z,22.2
2018-04-24T09:55:34.305Z,22.2
2018-04-24T09:56:36.046Z,22.2
2018-04-24T09:57:39.746Z,22.2
2018-04-24T09:58:41.297Z,22.2
2018-04-24T09:59:42.724Z,22.2
2018-04-24T10:00:44.365Z,22.2
2018-04-24T10:01:46.035Z,22.2
2018-04-24T10:02:50.547Z,22.2
2018-04-24T10:03:51.982Z,22.2
2018-04-24T10:04:53.704Z,22.2
2018-04-24T10:05:55.378Z,22.2
2018-04-24T10:06:57.036Z,22.2
2018-04-24T10:07:58.501Z,22.2
2018-04-24T10:09:00.004Z,22.2
2018-04-24T10:10:04.279Z,22
2018-04-24T10:11:05.857Z,22.2
2018-04-24T10:12:09.867Z,22.2
2018-04-24T10:13:11.387Z,22.2
2018-04-24T10:14:12.795Z,22.2
2018-04-24T10:15:14.146Z,22.3
2018-04-24T10:16:15.612Z,22.3
2018-04-24T10:17:17.089Z,22.2
2018-04-24T10:18:18.520Z,22.3
2018-04-24T10:19:19.969Z,22.3
2018-04-24T10:20:21.357Z,22.3
2018-04-24T10:21:22.768Z,22.2
2018-04-24T10:22:24.857Z,22.3
2018-04-24T10:23:29.028Z,22.3
2018-04-24T10:24:30.452Z,22.3
2018-04-24T10:25:31.975Z,22.3
2018-04-24T10:26:33.514Z,22.3
2018-04-24T10:27:37.703Z,22.2
2018-04-24T10:28:42.072Z,22.2
2018-04-24T10:29:43.579Z,22.2
2018-04-24T10:30:44.994Z,22.2
2018-04-24T10:31:46.430Z,22.3
2018-04-24T10:32:48.208Z,22.3
2018-04-24T10:33:49.587Z,22.3
2018-04-24T10:34:51.023Z,22.3
2018-04-24T10:35:52.418Z,22.2
2018-04-24T10:36:56.841Z,22.3
2018-04-24T10:37:58.436Z,22.3
2018-04-24T10:39:00.053Z,22.4
2018-04-24T10:40:01.706Z,22.4
2018-04-24T10:41:03.356Z,22.3
2018-04-24T10:42:04.965Z,22.4
2018-04-24T10:43:06.514Z,22.4
2018-04-24T10:44:07.936Z,22.4
2018-04-24T10:45:18.633Z,22.4
2018-04-24T10:46:23.681Z,22.4
2018-04-24T10:47:28.423Z,22.4
2018-04-24T10:48:30.020Z,22.4
2018-04-24T10:49:31.400Z,22.4
2018-04-24T10:50:32.861Z,22.3
2018-04-24T10:51:34.317Z,22.4
2018-04-24T10:52:35.624Z,22.3
2018-04-24T10:53:37.037Z,22.5
2018-04-24T10:54:38.440Z,22.5
2018-04-24T10:55:42.616Z,22.5
2018-04-24T10:56:46.133Z,22.5
2018-04-24T10:57:47.673Z,22.5
2018-04-24T10:58:49.142Z,22.4
2018-04-24T10:59:50.520Z,22.5
2018-04-24T11:00:51.901Z,22.5
2018-04-24T11:01:53.351Z,22.4
2018-04-24T11:02:54.970Z,22.5
2018-04-24T11:03:56.519Z,22.4
2018-04-24T11:04:57.884Z,22.5
2018-04-24T11:05:59.448Z,22.5
2018-04-24T11:07:01.101Z,22.5
2018-04-24T11:08:05.603Z,22.5
2018-04-24T11:09:07.054Z,22.5
2018-04-24T11:10:08.989Z,22.5
2018-04-24T11:11:10.423Z,22.5
2018-04-24T11:12:12.306Z,22.4
2018-04-24T11:13:19.416Z,22.5
2018-04-24T11:14:21.035Z,22.5
2018-04-24T11:15:23.903Z,22.6
2018-04-24T11:16:25.442Z,22.5
2018-04-24T11:17:28.011Z,22.6
2018-04-24T11:18:40.915Z,22.6
2018-04-24T11:19:45.425Z,22.6
2018-04-24T11:20:49.438Z,22.5
2018-04-24T11:21:51.959Z,22.6
2018-04-24T11:22:56.755Z,22.5
2018-04-24T11:23:58.736Z,22.5
2018-04-24T11:25:01.394Z,22.6
2018-04-24T11:26:03.401Z,22.6
2018-04-24T11:27:05.193Z,22.6
2018-04-24T11:28:19.838Z,22.6
2018-04-24T11:29:23.110Z,22.6
2018-04-24T11:30:24.809Z,22.6
2018-04-24T11:31:34.129Z,22.6
2018-04-24T11:32:36.092Z,22.7
2018-04-24T11:33:37.829Z,22.7
2018-04-24T11:34:40.661Z,22.6
2018-04-24T11:35:42.221Z,22.5
2018-04-24T11:36:45.321Z,22.6
2018-04-24T11:37:50.869Z,22.6
2018-04-24T11:38:52.494Z,22.7
2018-04-24T11:39:54.173Z,22.6
2018-04-24T11:40:57.280Z,22.6
2018-04-24T11:42:00.171Z,22.7
2018-04-24T11:43:03.896Z,22.6
2018-04-24T11:44:05.717Z,22.7
2018-04-24T11:45:07.647Z,22.7
2018-04-24T11:46:09.426Z,22.6
2018-04-24T11:47:11.072Z,22.7
2018-04-24T11:48:12.677Z,22.7
2018-04-24T11:49:14.238Z,22.7
2018-04-24T11:50:15.987Z,22.7
2018-04-24T11:51:17.985Z,22.7
2018-04-24T11:52:19.572Z,22.7
2018-04-24T11:53:21.081Z,22.7
2018-04-24T11:54:22.871Z,22.8
2018-04-24T11:55:24.528Z,22.8
2018-04-24T11:56:26.879Z,22.7
2018-04-24T11:57:28.776Z,22.7
2018-04-24T11:58:33.677Z,22.7
2018-04-24T11:59:35.789Z,22.7
2018-04-24T12:00:37.615Z,22.8
2018-04-24T12:01:39.404Z,22.6
2018-04-24T12:02:40.973Z,22.8
2018-04-24T12:03:42.506Z,22.8
2018-04-24T12:04:46.966Z,22.8
2018-04-24T12:05:48.476Z,22.8
2018-04-24T12:06:52.737Z,22.7
2018-04-24T12:07:54.827Z,22.8
2018-04-24T12:08:56.469Z,22.8
2018-04-24T12:09:57.921Z,22.8
2018-04-24T12:11:05.962Z,22.8
2018-04-24T12:12:09.286Z,22.9
2018-04-24T12:13:13.435Z,22.7
2018-04-24T12:14:14.891Z,22.8
2018-04-24T12:15:16.510Z,22.9
2018-04-24T12:16:17.892Z,22.9
2018-04-24T12:17:19.416Z,22.9
2018-04-24T12:18:20.823Z,22.9
2018-04-24T12:19:22.174Z,22.9
2018-04-24T12:20:23.535Z,22.9
2018-04-24T12:21:24.971Z,22.9
2018-04-24T12:22:26.500Z,22.8
2018-04-24T12:23:27.955Z,22.9
2018-04-24T12:24:29.379Z,22.9
2018-04-24T12:25:30.781Z,22.9
2018-04-24T12:26:32.152Z,22.9
2018-04-24T12:27:33.756Z,22.9
2018-04-24T12:28:35.193Z,22.9
2018-04-24T12:29:42.232Z,22.9
2018-04-24T12:30:43.718Z,22.9
2018-04-24T12:31:45.201Z,22.9
2018-04-24T12:32:46.628Z,23
2018-04-24T12:33:48.045Z,23
2018-04-24T12:34:49.476Z,23
2018-04-24T12:35:50.899Z,23
2018-04-24T12:36:52.314Z,23
2018-04-24T12:37:53.886Z,23
2018-04-24T12:38:55.613Z,23
2018-04-24T12:39:57.089Z,23
2018-04-24T12:40:58.490Z,23
2018-04-24T12:41:59.919Z,23
2018-04-24T12:43:05.973Z,23
2018-04-24T12:44:07.417Z,23
2018-04-24T12:45:09.079Z,23
2018-04-24T12:46:10.472Z,23
2018-04-24T12:47:11.911Z,23
2018-04-24T12:48:13.384Z,23.1
2018-04-24T12:49:14.793Z,23.1
2018-04-24T12:50:16.284Z,23.1
2018-04-24T12:51:23.711Z,23.1
2018-04-24T12:52:25.767Z,23.1
2018-04-24T12:53:27.428Z,23.1
2018-04-24T12:54:33.550Z,23.1
2018-04-24T12:55:34.943Z,23.1
2018-04-24T12:56:36.498Z,23.1
2018-04-24T12:57:42.795Z,23.1
2018-04-24T12:58:44.210Z,23.2
2018-04-24T12:59:47.385Z,23.2
2018-04-24T13:00:49.155Z,23.2
2018-04-24T13:01:50.574Z,23.2
2018-04-24T13:02:51.952Z,23.2
2018-04-24T13:03:53.442Z,23.1
2018-04-24T13:04:59.293Z,23.2
2018-04-24T13:06:06.088Z,23.2
2018-04-24T13:07:07.508Z,23.1
2018-04-24T13:08:08.866Z,23.2
2018-04-24T13:09:10.277Z,23.2
2018-04-24T13:10:11.693Z,23.1
2018-04-24T13:11:13.118Z,23.3
2018-04-24T13:12:17.479Z,23.3
2018-04-24T13:13:34.493Z,23.3
2018-04-24T13:14:36.486Z,23.3
2018-04-24T13:15:37.826Z,23.3
2018-04-24T13:16:40.584Z,23.2
2018-04-24T13:17:42.017Z,23.3
2018-04-24T13:18:46.198Z,23.3
2018-04-24T13:19:47.643Z,23.3
2018-04-24T13:20:49.029Z,23.3
2018-04-24T13:21:50.409Z,23.2
2018-04-24T13:22:54.306Z,23.3
2018-04-24T13:23:55.862Z,23.4
2018-04-24T13:24:57.512Z,23.4
2018-04-24T13:25:58.959Z,23.3
2018-04-24T13:27:08.453Z,23.4
2018-04-24T13:28:10.493Z,23.4
2018-04-24T13:29:13.151Z,23.4
2018-04-24T13:30:14.584Z,23.3
2018-04-24T13:31:19.407Z,23.3
2018-04-24T13:32:20.752Z,23.4
2018-04-24T13:33:22.143Z,23.3
2018-04-24T13:34:23.649Z,23.3
2018-04-24T13:35:25.602Z,23.4
2018-04-24T13:36:30.004Z,23.4
2018-04-24T13:37:31.369Z,23.3
2018-04-24T13:38:32.918Z,23.4
2018-04-24T13:39:34.310Z,23.4
2018-04-24T13:40:37.922Z,23.4
2018-04-24T13:41:39.404Z,23.4
2018-04-24T13:42:40.793Z,23.4
2018-04-24T13:43:42.177Z,23.4
2018-04-24T13:44:43.575Z,23.4
2018-04-24T13:45:45.193Z,23.4
2018-04-24T13:46:48.102Z,23.5
2018-04-24T13:47:49.985Z,23.5
2018-04-24T13:48:52.012Z,23.5
2018-04-24T13:49:53.439Z,23.5
2018-04-24T13:50:55.110Z,23.5
2018-04-24T13:51:56.651Z,23.5